sensor_id;sensor_type;location;lat;lon;timestamp;pressure;altitude;pressure_sealevel;temperature;humidity
44481;BME280;30184;42.018;23.670;2023-05-25T00:01:11;91583.31;;;10.38;84.29
44481;BME280;30184;42.018;23.670;2023-05-25T00:03:41;91589.84;;;10.41;84.15
44481;BME280;30184;42.018;23.670;2023-05-25T00:06:10;91557.19;;;9.99;84.36
44481;BME280;30184;42.018;23.670;2023-05-25T00:08:39;91574.88;;;10.36;84.42
44481;BME280;30184;42.018;23.670;2023-05-25T00:11:10;91571.81;;;10.34;84.47
44481;BME280;30184;42.018;23.670;2023-05-25T00:13:39;91576.16;;;10.32;84.64
44481;BME280;30184;42.018;23.670;2023-05-25T00:16:08;91573.84;;;10.30;84.53
44481;BME280;30184;42.018;23.670;2023-05-25T00:18:38;91582.84;;;10.27;84.20
44481;BME280;30184;42.018;23.670;2023-05-25T00:21:07;91576.25;;;10.28;84.01
44481;BME280;30184;42.018;23.670;2023-05-25T00:23:37;91573.19;;;10.26;84.70
44481;BME280;30184;42.018;23.670;2023-05-25T00:26:06;91588.03;;;10.22;84.91
44481;BME280;30184;42.018;23.670;2023-05-25T00:28:37;91580.75;;;10.19;85.33
44481;BME280;30184;42.018;23.670;2023-05-25T00:31:06;91582.72;;;10.18;85.17
44481;BME280;30184;42.018;23.670;2023-05-25T00:33:36;91576.56;;;10.14;85.11
44481;BME280;30184;42.018;23.670;2023-05-25T00:36:05;91581.56;;;10.16;85.16
44481;BME280;30184;42.018;23.670;2023-05-25T00:38:36;91575.03;;;10.13;85.25
44481;BME280;30184;42.018;23.670;2023-05-25T00:41:05;91589.88;;;10.08;85.77
44481;BME280;30184;42.018;23.670;2023-05-25T00:43:34;91583.34;;;10.06;85.01
44481;BME280;30184;42.018;23.670;2023-05-25T00:46:05;91597.84;;;9.99;84.77
44481;BME280;30184;42.018;23.670;2023-05-25T00:48:35;91580.31;;;10.04;85.05
44481;BME280;30184;42.018;23.670;2023-05-25T00:51:08;91518.94;;;9.49;86.04
44481;BME280;30184;42.018;23.670;2023-05-25T00:53:38;91593.28;;;9.96;86.17
44481;BME280;30184;42.018;23.670;2023-05-25T00:56:14;91597.94;;;9.96;85.93
44481;BME280;30184;42.018;23.670;2023-05-25T00:58:49;91592.16;;;9.94;85.34
44481;BME280;30184;42.018;23.670;2023-05-25T01:01:22;91603.44;;;9.92;85.13
44481;BME280;30184;42.018;23.670;2023-05-25T01:03:55;91597.34;;;9.88;85.77
44481;BME280;30184;42.018;23.670;2023-05-25T01:06:28;91570.09;;;9.63;85.81
44481;BME280;30184;42.018;23.670;2023-05-25T01:09:02;91589.88;;;9.76;87.04
44481;BME280;30184;42.018;23.670;2023-05-25T01:11:35;91571.09;;;9.53;87.33
44481;BME280;30184;42.018;23.670;2023-05-25T01:14:05;91596.50;;;9.75;87.22
44481;BME280;30184;42.018;23.670;2023-05-25T01:16:38;91579.41;;;9.62;87.01
44481;BME280;30184;42.018;23.670;2023-05-25T01:19:08;91603.44;;;9.76;86.93
44481;BME280;30184;42.018;23.670;2023-05-25T01:21:43;91595.31;;;9.76;87.16
44481;BME280;30184;42.018;23.670;2023-05-25T01:24:18;91599.97;;;9.76;87.09
44481;BME280;30184;42.018;23.670;2023-05-25T01:27:01;91598.13;;;9.72;86.72
44481;BME280;30184;42.018;23.670;2023-05-25T01:29:32;91603.59;;;9.69;87.20
44481;BME280;30184;42.018;23.670;2023-05-25T01:32:03;91595.91;;;9.67;87.28
44481;BME280;30184;42.018;23.670;2023-05-25T01:34:35;91592.66;;;9.56;87.64
44481;BME280;30184;42.018;23.670;2023-05-25T01:37:07;91596.47;;;9.59;88.09
44481;BME280;30184;42.018;23.670;2023-05-25T01:39:36;91597.66;;;9.58;88.26
44481;BME280;30184;42.018;23.670;2023-05-25T01:42:07;91572.25;;;9.35;88.01
44481;BME280;30184;42.018;23.670;2023-05-25T01:44:37;91598.19;;;9.53;87.71
44481;BME280;30184;42.018;23.670;2023-05-25T01:47:15;91569.69;;;9.28;87.82
44481;BME280;30184;42.018;23.670;2023-05-25T01:49:55;91599.38;;;9.52;87.93
44481;BME280;30184;42.018;23.670;2023-05-25T01:52:32;91626.88;;;9.50;87.93
44481;BME280;30184;42.018;23.670;2023-05-25T01:55:06;91587.06;;;9.47;87.94
44481;BME280;30184;42.018;23.670;2023-05-25T01:57:39;91599.19;;;9.43;88.35
44481;BME280;30184;42.018;23.670;2023-05-25T02:00:11;91376.81;;;7.84;88.51
44481;BME280;30184;42.018;23.670;2023-05-25T02:02:42;91594.25;;;9.38;88.68
44481;BME280;30184;42.018;23.670;2023-05-25T02:05:12;91591.22;;;9.35;88.84
44481;BME280;30184;42.018;23.670;2023-05-25T02:07:43;91587.41;;;9.33;88.88
44481;BME280;30184;42.018;23.670;2023-05-25T02:10:12;91592.88;;;9.29;89.42
44481;BME280;30184;42.018;23.670;2023-05-25T02:12:42;91591.34;;;9.28;89.37
44481;BME280;30184;42.018;23.670;2023-05-25T02:15:11;91572.44;;;9.09;89.24
44481;BME280;30184;42.018;23.670;2023-05-25T02:17:40;91591.09;;;9.23;89.23
44481;BME280;30184;42.018;23.670;2023-05-25T02:20:11;91610.13;;;9.19;89.38
44481;BME280;30184;42.018;23.670;2023-05-25T02:22:40;91604.38;;;9.17;89.64
44481;BME280;30184;42.018;23.670;2023-05-25T02:25:11;91609.44;;;9.15;89.33
44481;BME280;30184;42.018;23.670;2023-05-25T02:27:40;91611.44;;;9.11;89.88
44481;BME280;30184;42.018;23.670;2023-05-25T02:30:11;91613.81;;;9.09;89.76
44481;BME280;30184;42.018;23.670;2023-05-25T02:32:40;91615.44;;;9.07;89.96
44481;BME280;30184;42.018;23.670;2023-05-25T02:35:09;91614.66;;;9.06;89.87
44481;BME280;30184;42.018;23.670;2023-05-25T02:37:39;91612.38;;;9.05;90.02
44481;BME280;30184;42.018;23.670;2023-05-25T02:40:11;91624.88;;;8.98;90.25
44481;BME280;30184;42.018;23.670;2023-05-25T02:42:41;91621.81;;;8.96;90.44
44481;BME280;30184;42.018;23.670;2023-05-25T02:45:10;91619.94;;;8.93;90.47
44481;BME280;30184;42.018;23.670;2023-05-25T02:47:40;91631.16;;;8.92;90.47
44481;BME280;30184;42.018;23.670;2023-05-25T02:50:11;91633.19;;;8.88;90.69
44481;BME280;30184;42.018;23.670;2023-05-25T02:52:45;91637.44;;;8.89;90.83
44481;BME280;30184;42.018;23.670;2023-05-25T02:55:16;91628.56;;;8.88;90.93
44481;BME280;30184;42.018;23.670;2023-05-25T02:57:46;91636.66;;;8.88;91.18
44481;BME280;30184;42.018;23.670;2023-05-25T03:00:30;91597.41;;;8.60;91.20
44481;BME280;30184;42.018;23.670;2023-05-25T03:02:59;91630.16;;;8.86;91.18
44481;BME280;30184;42.018;23.670;2023-05-25T03:05:29;91642.84;;;8.89;90.98
44481;BME280;30184;42.018;23.670;2023-05-25T03:08:02;91644.03;;;8.88;90.88
44481;BME280;30184;42.018;23.670;2023-05-25T03:10:33;91640.16;;;8.89;90.88
44481;BME280;30184;42.018;23.670;2023-05-25T03:13:02;91648.31;;;8.85;91.07
44481;BME280;30184;42.018;23.670;2023-05-25T03:15:31;91647.19;;;8.83;91.02
44481;BME280;30184;42.018;23.670;2023-05-25T03:18:00;91652.25;;;8.81;91.08
44481;BME280;30184;42.018;23.670;2023-05-25T03:20:33;91647.19;;;8.83;91.10
44481;BME280;30184;42.018;23.670;2023-05-25T03:23:03;91651.44;;;8.84;90.92
44481;BME280;30184;42.018;23.670;2023-05-25T03:25:35;91653.38;;;8.83;90.48
44481;BME280;30184;42.018;23.670;2023-05-25T03:28:04;91654.91;;;8.84;90.39
44481;BME280;30184;42.018;23.670;2023-05-25T03:30:33;91659.09;;;8.89;90.53
44481;BME280;30184;42.018;23.670;2023-05-25T03:33:02;91659.75;;;8.93;90.69
44481;BME280;30184;42.018;23.670;2023-05-25T03:35:39;91614.41;;;8.61;90.70
44481;BME280;30184;42.018;23.670;2023-05-25T03:38:08;91661.16;;;9.01;90.85
44481;BME280;30184;42.018;23.670;2023-05-25T03:40:39;91661.84;;;9.05;91.26
44481;BME280;30184;42.018;23.670;2023-05-25T03:43:08;91658.31;;;9.08;91.57
44481;BME280;30184;42.018;23.670;2023-05-25T03:45:38;91655.13;;;9.13;91.47
44481;BME280;30184;42.018;23.670;2023-05-25T03:48:08;91653.13;;;9.17;91.64
44481;BME280;30184;42.018;23.670;2023-05-25T03:50:37;91652.09;;;9.27;91.08
44481;BME280;30184;42.018;23.670;2023-05-25T03:53:07;91661.94;;;9.38;89.93
44481;BME280;30184;42.018;23.670;2023-05-25T03:55:36;91655.19;;;9.46;89.75
44481;BME280;30184;42.018;23.670;2023-05-25T03:58:07;91653.44;;;9.55;89.61
44481;BME280;30184;42.018;23.670;2023-05-25T04:00:36;91506.97;;;8.62;89.19
44481;BME280;30184;42.018;23.670;2023-05-25T04:03:06;91654.25;;;9.72;89.16
44481;BME280;30184;42.018;23.670;2023-05-25T04:05:37;91650.97;;;9.81;88.94
44481;BME280;30184;42.018;23.670;2023-05-25T04:08:06;91606.13;;;9.60;88.64
44481;BME280;30184;42.018;23.670;2023-05-25T04:10:36;91657.06;;;10.01;88.51
44481;BME280;30184;42.018;23.670;2023-05-25T04:13:06;91653.69;;;10.13;88.08
44481;BME280;30184;42.018;23.670;2023-05-25T04:15:36;91643.59;;;10.30;87.56
44481;BME280;30184;42.018;23.670;2023-05-25T04:18:12;91653.75;;;10.58;87.00
44481;BME280;30184;42.018;23.670;2023-05-25T04:20:41;91646.63;;;10.93;85.60
44481;BME280;30184;42.018;23.670;2023-05-25T04:23:12;91649.13;;;11.29;84.42
44481;BME280;30184;42.018;23.670;2023-05-25T04:25:42;91650.31;;;11.41;83.05
44481;BME280;30184;42.018;23.670;2023-05-25T04:28:13;91643.72;;;11.54;82.45
44481;BME280;30184;42.018;23.670;2023-05-25T04:30:54;91590.13;;;11.30;81.54
44481;BME280;30184;42.018;23.670;2023-05-25T04:33:36;91637.75;;;11.72;81.19
44481;BME280;30184;42.018;23.670;2023-05-25T04:36:38;91566.44;;;11.30;80.17
44481;BME280;30184;42.018;23.670;2023-05-25T04:39:10;91640.41;;;11.88;79.94
44481;BME280;30184;42.018;23.670;2023-05-25T04:41:45;91642.03;;;11.99;79.39
44481;BME280;30184;42.018;23.670;2023-05-25T04:44:16;91469.09;;;10.36;78.74
44481;BME280;30184;42.018;23.670;2023-05-25T04:46:51;91619.41;;;12.02;77.93
44481;BME280;30184;42.018;23.670;2023-05-25T04:49:30;91649.06;;;12.34;78.01
44481;BME280;30184;42.018;23.670;2023-05-25T04:52:00;91645.25;;;12.44;77.94
44481;BME280;30184;42.018;23.670;2023-05-25T04:54:30;91641.63;;;12.60;77.62
44481;BME280;30184;42.018;23.670;2023-05-25T04:57:01;91642.16;;;12.89;76.98
44481;BME280;30184;42.018;23.670;2023-05-25T04:59:33;91592.78;;;12.78;76.21
44481;BME280;30184;42.018;23.670;2023-05-25T05:02:04;91649.50;;;13.36;76.03
44481;BME280;30184;42.018;23.670;2023-05-25T05:04:33;91639.31;;;13.49;75.05
44481;BME280;30184;42.018;23.670;2023-05-25T05:07:06;91645.59;;;13.90;73.81
44481;BME280;30184;42.018;23.670;2023-05-25T05:09:36;91646.84;;;13.98;72.33
44481;BME280;30184;42.018;23.670;2023-05-25T05:12:06;91644.13;;;14.07;70.94
44481;BME280;30184;42.018;23.670;2023-05-25T05:14:42;91658.47;;;14.29;71.13
44481;BME280;30184;42.018;23.670;2023-05-25T05:17:11;91626.06;;;14.40;70.38
44481;BME280;30184;42.018;23.670;2023-05-25T05:19:40;91645.69;;;14.66;68.79
44481;BME280;30184;42.018;23.670;2023-05-25T05:22:11;91640.69;;;14.74;68.88
44481;BME280;30184;42.018;23.670;2023-05-25T05:24:44;91638.56;;;14.69;69.72
44481;BME280;30184;42.018;23.670;2023-05-25T05:27:20;91677.25;;;14.67;69.59
44481;BME280;30184;42.018;23.670;2023-05-25T05:29:56;91637.03;;;14.68;68.56
44481;BME280;30184;42.018;23.670;2023-05-25T05:32:25;91635.53;;;14.76;68.63
44481;BME280;30184;42.018;23.670;2023-05-25T05:34:56;91631.75;;;14.82;68.56
44481;BME280;30184;42.018;23.670;2023-05-25T05:37:42;91629.50;;;14.99;68.34
44481;BME280;30184;42.018;23.670;2023-05-25T05:40:12;91612.66;;;15.01;68.41
44481;BME280;30184;42.018;23.670;2023-05-25T05:42:42;91633.44;;;15.35;67.99
44481;BME280;30184;42.018;23.670;2023-05-25T05:45:13;91631.91;;;15.43;67.18
44481;BME280;30184;42.018;23.670;2023-05-25T05:47:42;91637.50;;;15.48;67.15
44481;BME280;30184;42.018;23.670;2023-05-25T05:50:11;91612.75;;;15.43;67.05
44481;BME280;30184;42.018;23.670;2023-05-25T05:52:41;91598.66;;;15.17;66.62
44481;BME280;30184;42.018;23.670;2023-05-25T05:55:11;91630.25;;;15.54;65.86
44481;BME280;30184;42.018;23.670;2023-05-25T05:57:41;91619.72;;;15.62;65.61
44481;BME280;30184;42.018;23.670;2023-05-25T06:00:13;91623.66;;;15.70;65.92
44481;BME280;30184;42.018;23.670;2023-05-25T06:02:43;91630.19;;;15.73;67.12
44481;BME280;30184;42.018;23.670;2023-05-25T06:05:18;91627.91;;;15.80;67.65
44481;BME280;30184;42.018;23.670;2023-05-25T06:07:48;91654.91;;;15.96;67.11
44481;BME280;30184;42.018;23.670;2023-05-25T06:10:19;91622.34;;;16.08;65.98
44481;BME280;30184;42.018;23.670;2023-05-25T06:12:49;91618.03;;;16.16;65.20
44481;BME280;30184;42.018;23.670;2023-05-25T06:15:20;91608.16;;;16.18;64.77
44481;BME280;30184;42.018;23.670;2023-05-25T06:17:51;91603.13;;;16.17;65.10
44481;BME280;30184;42.018;23.670;2023-05-25T06:20:20;91585.19;;;16.16;64.31
44481;BME280;30184;42.018;23.670;2023-05-25T06:22:50;91564.88;;;15.98;62.93
44481;BME280;30184;42.018;23.670;2023-05-25T06:25:20;91607.75;;;16.34;63.86
44481;BME280;30184;42.018;23.670;2023-05-25T06:27:50;91598.44;;;16.41;61.58
44481;BME280;30184;42.018;23.670;2023-05-25T06:30:21;91606.19;;;16.42;62.23
44481;BME280;30184;42.018;23.670;2023-05-25T06:32:52;91598.69;;;16.52;62.70
44481;BME280;30184;42.018;23.670;2023-05-25T06:35:21;91603.50;;;16.66;62.15
44481;BME280;30184;42.018;23.670;2023-05-25T06:37:51;91603.44;;;16.75;61.17
44481;BME280;30184;42.018;23.670;2023-05-25T06:40:20;91604.97;;;16.43;60.82
44481;BME280;30184;42.018;23.670;2023-05-25T06:42:50;91596.72;;;17.00;60.93
44481;BME280;30184;42.018;23.670;2023-05-25T06:45:45;91599.13;;;17.22;58.95
44481;BME280;30184;42.018;23.670;2023-05-25T06:48:14;91578.44;;;17.36;58.93
44481;BME280;30184;42.018;23.670;2023-05-25T06:50:43;91582.44;;;17.64;57.64
44481;BME280;30184;42.018;23.670;2023-05-25T06:53:13;91578.38;;;17.89;55.11
44481;BME280;30184;42.018;23.670;2023-05-25T06:55:42;91643.41;;;17.98;53.59
44481;BME280;30184;42.018;23.670;2023-05-25T06:58:11;91571.78;;;18.31;55.59
44481;BME280;30184;42.018;23.670;2023-05-25T07:00:41;91568.84;;;18.54;54.61
44481;BME280;30184;42.018;23.670;2023-05-25T07:03:12;91567.47;;;18.79;52.77
44481;BME280;30184;42.018;23.670;2023-05-25T07:05:41;91556.72;;;19.01;52.49
44481;BME280;30184;42.018;23.670;2023-05-25T07:08:10;91554.38;;;19.15;53.66
44481;BME280;30184;42.018;23.670;2023-05-25T07:10:39;91554.03;;;19.27;54.16
44481;BME280;30184;42.018;23.670;2023-05-25T07:13:09;91550.28;;;19.51;51.18
44481;BME280;30184;42.018;23.670;2023-05-25T07:15:38;91554.97;;;19.70;50.28
44481;BME280;30184;42.018;23.670;2023-05-25T07:18:08;91551.84;;;19.83;49.83
44481;BME280;30184;42.018;23.670;2023-05-25T07:20:40;91553.75;;;19.77;48.33
44481;BME280;30184;42.018;23.670;2023-05-25T07:23:10;91512.00;;;19.27;50.21
44481;BME280;30184;42.018;23.670;2023-05-25T07:25:40;91547.63;;;19.62;49.29
44481;BME280;30184;42.018;23.670;2023-05-25T07:28:09;91550.19;;;19.45;50.78
44481;BME280;30184;42.018;23.670;2023-05-25T07:30:39;91542.50;;;19.49;49.93
44481;BME280;30184;42.018;23.670;2023-05-25T07:33:08;91537.47;;;19.73;50.29
44481;BME280;30184;42.018;23.670;2023-05-25T07:35:37;91539.19;;;20.02;51.10
44481;BME280;30184;42.018;23.670;2023-05-25T07:38:08;91533.88;;;20.30;50.53
44481;BME280;30184;42.018;23.670;2023-05-25T07:40:37;91523.03;;;20.53;49.16
44481;BME280;30184;42.018;23.670;2023-05-25T07:43:07;91504.25;;;20.57;48.18
44481;BME280;30184;42.018;23.670;2023-05-25T07:45:37;91529.91;;;20.74;48.50
44481;BME280;30184;42.018;23.670;2023-05-25T07:48:06;91515.09;;;20.66;47.62
44481;BME280;30184;42.018;23.670;2023-05-25T07:50:36;91525.91;;;20.75;47.61
44481;BME280;30184;42.018;23.670;2023-05-25T07:53:05;91519.63;;;20.74;48.10
44481;BME280;30184;42.018;23.670;2023-05-25T07:55:35;91520.34;;;20.64;49.68
44481;BME280;30184;42.018;23.670;2023-05-25T07:58:05;91499.19;;;20.49;49.36
44481;BME280;30184;42.018;23.670;2023-05-25T08:00:35;91482.66;;;20.49;47.16
44481;BME280;30184;42.018;23.670;2023-05-25T08:03:04;91517.16;;;20.82;47.04
44481;BME280;30184;42.018;23.670;2023-05-25T08:05:34;91522.19;;;20.89;47.00
44481;BME280;30184;42.018;23.670;2023-05-25T08:08:03;91517.72;;;20.97;46.22
44481;BME280;30184;42.018;23.670;2023-05-25T08:10:32;91512.19;;;20.97;46.51
44481;BME280;30184;42.018;23.670;2023-05-25T08:13:03;91510.78;;;21.18;45.69
44481;BME280;30184;42.018;23.670;2023-05-25T08:15:32;91512.34;;;21.42;45.79
44481;BME280;30184;42.018;23.670;2023-05-25T08:18:01;91509.13;;;21.71;44.40
44481;BME280;30184;42.018;23.670;2023-05-25T08:20:31;91408.22;;;21.31;43.10
44481;BME280;30184;42.018;23.670;2023-05-25T08:23:00;91503.63;;;22.16;42.93
44481;BME280;30184;42.018;23.670;2023-05-25T08:25:29;91501.81;;;22.35;43.84
44481;BME280;30184;42.018;23.670;2023-05-25T08:27:58;91494.28;;;22.47;44.57
44481;BME280;30184;42.018;23.670;2023-05-25T08:30:29;91490.47;;;22.55;44.12
44481;BME280;30184;42.018;23.670;2023-05-25T08:32:59;91472.44;;;22.32;44.37
44481;BME280;30184;42.018;23.670;2023-05-25T08:35:28;91494.53;;;22.43;42.32
44481;BME280;30184;42.018;23.670;2023-05-25T08:37:57;91518.94;;;22.28;39.62
44481;BME280;30184;42.018;23.670;2023-05-25T08:40:27;91324.13;;;20.93;40.74
44481;BME280;30184;42.018;23.670;2023-05-25T08:42:56;91495.06;;;22.25;40.98
44481;BME280;30184;42.018;23.670;2023-05-25T08:45:26;91489.53;;;22.42;40.89
44481;BME280;30184;42.018;23.670;2023-05-25T08:48:03;91449.09;;;22.11;40.78
44481;BME280;30184;42.018;23.670;2023-05-25T08:50:37;91492.50;;;22.44;39.86
44481;BME280;30184;42.018;23.670;2023-05-25T08:53:09;91496.03;;;22.50;41.42
44481;BME280;30184;42.018;23.670;2023-05-25T08:55:41;91493.25;;;22.44;40.41
44481;BME280;30184;42.018;23.670;2023-05-25T08:58:15;91500.06;;;22.49;40.51
44481;BME280;30184;42.018;23.670;2023-05-25T09:00:49;91510.84;;;22.52;39.58
44481;BME280;30184;42.018;23.670;2023-05-25T09:03:22;91505.56;;;22.43;38.34
44481;BME280;30184;42.018;23.670;2023-05-25T09:05:54;91508.63;;;22.28;38.49
44481;BME280;30184;42.018;23.670;2023-05-25T09:08:24;91496.06;;;22.27;39.50
44481;BME280;30184;42.018;23.670;2023-05-25T09:10:55;91394.63;;;21.78;38.56
44481;BME280;30184;42.018;23.670;2023-05-25T09:13:25;91479.66;;;22.57;39.08
44481;BME280;30184;42.018;23.670;2023-05-25T09:15:54;91333.59;;;21.87;39.14
44481;BME280;30184;42.018;23.670;2023-05-25T09:18:25;91483.91;;;23.27;38.15
44481;BME280;30184;42.018;23.670;2023-05-25T09:20:54;91482.06;;;23.52;38.06
44481;BME280;30184;42.018;23.670;2023-05-25T09:23:23;91233.06;;;22.07;37.88
44481;BME280;30184;42.018;23.670;2023-05-25T09:25:52;91475.03;;;24.11;36.58
44481;BME280;30184;42.018;23.670;2023-05-25T09:28:22;91479.00;;;24.27;36.49
44481;BME280;30184;42.018;23.670;2023-05-25T09:30:54;91470.22;;;24.17;35.33
44481;BME280;30184;42.018;23.670;2023-05-25T09:33:25;91478.91;;;24.02;35.78
44481;BME280;30184;42.018;23.670;2023-05-25T09:35:54;91471.53;;;24.10;34.20
44481;BME280;30184;42.018;23.670;2023-05-25T09:38:24;91426.06;;;23.95;34.98
44481;BME280;30184;42.018;23.670;2023-05-25T09:40:54;91466.16;;;24.24;35.12
44481;BME280;30184;42.018;23.670;2023-05-25T09:43:24;91427.81;;;23.98;35.63
44481;BME280;30184;42.018;23.670;2023-05-25T09:45:59;91468.94;;;23.88;35.98
44481;BME280;30184;42.018;23.670;2023-05-25T09:48:30;91472.59;;;23.72;35.91
44481;BME280;30184;42.018;23.670;2023-05-25T09:50:59;91466.69;;;23.45;35.83
44481;BME280;30184;42.018;23.670;2023-05-25T09:53:30;91480.75;;;23.59;36.65
44481;BME280;30184;42.018;23.670;2023-05-25T09:55:59;91499.44;;;23.53;36.24
44481;BME280;30184;42.018;23.670;2023-05-25T09:58:30;91488.38;;;23.41;37.57
44481;BME280;30184;42.018;23.670;2023-05-25T10:00:59;91529.84;;;23.06;39.71
44481;BME280;30184;42.018;23.670;2023-05-25T10:03:30;91512.56;;;22.72;40.42
44481;BME280;30184;42.018;23.670;2023-05-25T10:06:00;91523.94;;;22.46;42.22
44481;BME280;30184;42.018;23.670;2023-05-25T10:08:29;91531.78;;;22.14;46.33
44481;BME280;30184;42.018;23.670;2023-05-25T10:11:00;91525.19;;;21.89;46.37
44481;BME280;30184;42.018;23.670;2023-05-25T10:13:31;91526.16;;;21.53;50.10
44481;BME280;30184;42.018;23.670;2023-05-25T10:16:01;91420.34;;;20.74;52.61
44481;BME280;30184;42.018;23.670;2023-05-25T10:18:35;91511.47;;;21.13;59.14
44481;BME280;30184;42.018;23.670;2023-05-25T10:21:07;91539.22;;;20.82;63.09
44481;BME280;30184;42.018;23.670;2023-05-25T10:23:39;91528.88;;;20.29;65.31
44481;BME280;30184;42.018;23.670;2023-05-25T10:26:16;91557.59;;;20.17;66.85
44481;BME280;30184;42.018;23.670;2023-05-25T10:28:49;91550.00;;;20.06;67.02
44481;BME280;30184;42.018;23.670;2023-05-25T10:31:20;91566.78;;;20.08;67.49
44481;BME280;30184;42.018;23.670;2023-05-25T10:33:51;91543.69;;;20.00;68.72
44481;BME280;30184;42.018;23.670;2023-05-25T10:36:22;91552.75;;;20.06;65.82
44481;BME280;30184;42.018;23.670;2023-05-25T10:38:51;91546.66;;;20.28;68.15
44481;BME280;30184;42.018;23.670;2023-05-25T10:41:20;91532.81;;;20.59;66.35
44481;BME280;30184;42.018;23.670;2023-05-25T10:43:50;91489.88;;;20.41;63.76
44481;BME280;30184;42.018;23.670;2023-05-25T10:46:21;91538.03;;;20.94;54.06
44481;BME280;30184;42.018;23.670;2023-05-25T10:48:52;91504.94;;;21.05;52.29
44481;BME280;30184;42.018;23.670;2023-05-25T10:51:36;91526.94;;;21.48;50.59
44481;BME280;30184;42.018;23.670;2023-05-25T10:54:06;91525.19;;;21.67;52.96
44481;BME280;30184;42.018;23.670;2023-05-25T10:56:35;91521.44;;;21.81;50.37
44481;BME280;30184;42.018;23.670;2023-05-25T10:59:04;91511.88;;;21.71;50.84
44481;BME280;30184;42.018;23.670;2023-05-25T11:01:48;91516.41;;;21.96;52.40
44481;BME280;30184;42.018;23.670;2023-05-25T11:04:19;91514.44;;;22.08;48.18
44481;BME280;30184;42.018;23.670;2023-05-25T11:07:13;91512.66;;;22.16;50.00
44481;BME280;30184;42.018;23.670;2023-05-25T11:09:55;91499.34;;;21.87;52.62
44481;BME280;30184;42.018;23.670;2023-05-25T11:12:25;91496.09;;;22.05;50.66
44481;BME280;30184;42.018;23.670;2023-05-25T11:15:13;91505.41;;;22.13;49.35
44481;BME280;30184;42.018;23.670;2023-05-25T11:18:00;91505.13;;;22.00;53.15
44481;BME280;30184;42.018;23.670;2023-05-25T11:20:31;91505.09;;;21.89;52.17
44481;BME280;30184;42.018;23.670;2023-05-25T11:23:23;91501.88;;;22.02;52.98
44481;BME280;30184;42.018;23.670;2023-05-25T11:25:52;91501.38;;;22.09;47.21
44481;BME280;30184;42.018;23.670;2023-05-25T11:28:32;91464.44;;;21.95;45.79
44481;BME280;30184;42.018;23.670;2023-05-25T11:31:04;91496.81;;;22.28;45.27
44481;BME280;30184;42.018;23.670;2023-05-25T11:33:34;91496.84;;;22.22;43.56
44481;BME280;30184;42.018;23.670;2023-05-25T11:36:07;91445.34;;;22.08;43.73
44481;BME280;30184;42.018;23.670;2023-05-25T11:38:40;91437.81;;;22.03;43.05
44481;BME280;30184;42.018;23.670;2023-05-25T11:41:17;91480.94;;;22.51;44.57
44481;BME280;30184;42.018;23.670;2023-05-25T11:43:47;91470.38;;;22.55;41.50
44481;BME280;30184;42.018;23.670;2023-05-25T11:46:17;91482.84;;;22.89;41.95
44481;BME280;30184;42.018;23.670;2023-05-25T11:48:49;91451.19;;;22.85;41.01
44481;BME280;30184;42.018;23.670;2023-05-25T11:51:22;91442.03;;;23.06;39.69
44481;BME280;30184;42.018;23.670;2023-05-25T11:53:52;91464.16;;;23.48;40.42
44481;BME280;30184;42.018;23.670;2023-05-25T11:56:22;91451.06;;;23.48;39.37
44481;BME280;30184;42.018;23.670;2023-05-25T11:59:00;91507.69;;;23.58;38.20
44481;BME280;30184;42.018;23.670;2023-05-25T12:01:30;91392.81;;;23.29;37.50
44481;BME280;30184;42.018;23.670;2023-05-25T12:04:07;91440.56;;;23.76;37.23
44481;BME280;30184;42.018;23.670;2023-05-25T12:06:38;91435.13;;;23.95;37.51
44481;BME280;30184;42.018;23.670;2023-05-25T12:09:10;91335.25;;;22.81;37.68
44481;BME280;30184;42.018;23.670;2023-05-25T12:11:39;91412.88;;;24.01;37.04
44481;BME280;30184;42.018;23.670;2023-05-25T12:14:12;91399.09;;;23.95;37.61
44481;BME280;30184;42.018;23.670;2023-05-25T12:16:42;91407.88;;;23.99;37.85
44481;BME280;30184;42.018;23.670;2023-05-25T12:19:12;91422.66;;;24.37;36.69
44481;BME280;30184;42.018;23.670;2023-05-25T12:21:43;91410.88;;;24.31;36.01
44481;BME280;30184;42.018;23.670;2023-05-25T12:24:14;91378.50;;;24.15;36.51
44481;BME280;30184;42.018;23.670;2023-05-25T12:26:47;91408.03;;;24.37;36.12
44481;BME280;30184;42.018;23.670;2023-05-25T12:29:17;91373.63;;;23.97;35.75
44481;BME280;30184;42.018;23.670;2023-05-25T12:31:48;91404.94;;;24.16;35.63
44481;BME280;30184;42.018;23.670;2023-05-25T12:34:20;91422.69;;;24.07;36.00
44481;BME280;30184;42.018;23.670;2023-05-25T12:36:56;91403.72;;;23.87;36.33
44481;BME280;30184;42.018;23.670;2023-05-25T12:39:33;91396.47;;;23.78;36.20
44481;BME280;30184;42.018;23.670;2023-05-25T12:42:13;91408.91;;;23.66;36.28
44481;BME280;30184;42.018;23.670;2023-05-25T12:44:44;91409.28;;;23.52;38.43
44481;BME280;30184;42.018;23.670;2023-05-25T12:47:15;91412.38;;;23.37;42.03
44481;BME280;30184;42.018;23.670;2023-05-25T12:49:47;91424.19;;;23.02;42.60
44481;BME280;30184;42.018;23.670;2023-05-25T12:52:33;91421.00;;;22.81;46.07
44481;BME280;30184;42.018;23.670;2023-05-25T12:55:19;91439.44;;;22.56;44.29
44481;BME280;30184;42.018;23.670;2023-05-25T12:57:49;91437.06;;;22.14;45.18
44481;BME280;30184;42.018;23.670;2023-05-25T13:00:20;91439.06;;;21.85;46.97
44481;BME280;30184;42.018;23.670;2023-05-25T13:02:50;91466.94;;;21.71;47.34
44481;BME280;30184;42.018;23.670;2023-05-25T13:05:27;91439.09;;;21.57;47.74
44481;BME280;30184;42.018;23.670;2023-05-25T13:07:58;91438.06;;;21.60;47.54
44481;BME280;30184;42.018;23.670;2023-05-25T13:10:29;91439.59;;;21.67;46.27
44481;BME280;30184;42.018;23.670;2023-05-25T13:12:59;91369.81;;;21.22;46.17
44481;BME280;30184;42.018;23.670;2023-05-25T13:15:29;91450.13;;;21.85;46.03